sensor_id;sensor_type;location;lat;lon;timestamp;pressure;altitude;pressure_sealevel;temperature;humidity
11987;BME280;6053;51.382;6.768;2023-12-20T00:01:23;101331.44;;;11.73;66.26
11987;BME280;6053;51.382;6.768;2023-12-20T00:03:51;101336.38;;;11.62;66.38
11987;BME280;6053;51.382;6.768;2023-12-20T00:06:49;101326.66;;;11.93;65.25
11987;BME280;6053;51.382;6.768;2023-12-20T00:09:29;101338.03;;;11.59;66.50
11987;BME280;6053;51.382;6.768;2023-12-20T00:12:03;101336.16;;;11.53;66.73
11987;BME280;6053;51.382;6.768;2023-12-20T00:14:33;101343.66;;;11.10;67.84
11987;BME280;6053;51.382;6.768;2023-12-20T00:17:08;101350.88;;;11.69;66.23
11987;BME280;6053;51.382;6.768;2023-12-20T00:19:41;101355.81;;;11.58;66.48
11987;BME280;6053;51.382;6.768;2023-12-20T00:22:17;101356.56;;;11.62;66.35
11987;BME280;6053;51.382;6.768;2023-12-20T00:24:45;101349.03;;;11.63;66.29
11987;BME280;6053;51.382;6.768;2023-12-20T00:27:16;101353.00;;;11.39;66.98
11987;BME280;6053;51.382;6.768;2023-12-20T00:29:50;101357.31;;;11.40;66.36
11987;BME280;6053;51.382;6.768;2023-12-20T00:32:18;101360.00;;;11.66;66.11
11987;BME280;6053;51.382;6.768;2023-12-20T00:34:47;101364.41;;;11.41;66.21
11987;BME280;6053;51.382;6.768;2023-12-20T00:37:35;101364.19;;;11.55;66.54
11987;BME280;6053;51.382;6.768;2023-12-20T00:40:06;101360.94;;;11.79;65.59
11987;BME280;6053;51.382;6.768;2023-12-20T00:42:35;101359.66;;;11.84;65.30
11987;BME280;6053;51.382;6.768;2023-12-20T00:45:05;101361.16;;;11.88;65.17
11987;BME280;6053;51.382;6.768;2023-12-20T00:47:33;101364.41;;;11.41;65.71
11987;BME280;6053;51.382;6.768;2023-12-20T00:50:02;101369.59;;;11.81;65.35
11987;BME280;6053;51.382;6.768;2023-12-20T00:52:39;101367.81;;;11.29;66.77
11987;BME280;6053;51.382;6.768;2023-12-20T00:55:08;101365.38;;;11.54;65.73
11987;BME280;6053;51.382;6.768;2023-12-20T00:57:36;101375.97;;;11.78;65.51
11987;BME280;6053;51.382;6.768;2023-12-20T01:00:06;101371.59;;;11.81;65.45
11987;BME280;6053;51.382;6.768;2023-12-20T01:02:36;101361.78;;;11.34;66.05
11987;BME280;6053;51.382;6.768;2023-12-20T01:05:06;101368.78;;;11.19;67.55
11987;BME280;6053;51.382;6.768;2023-12-20T01:07:37;101377.38;;;9.53;72.87
11987;BME280;6053;51.382;6.768;2023-12-20T01:10:12;101382.09;;;9.56;74.16
11987;BME280;6053;51.382;6.768;2023-12-20T01:12:41;101387.03;;;9.34;74.38
11987;BME280;6053;51.382;6.768;2023-12-20T01:15:14;101389.91;;;9.61;73.60
11987;BME280;6053;51.382;6.768;2023-12-20T01:17:43;101384.97;;;10.15;72.48
11987;BME280;6053;51.382;6.768;2023-12-20T01:20:12;101379.38;;;9.12;74.00
11987;BME280;6053;51.382;6.768;2023-12-20T01:22:42;101392.97;;;8.25;77.15
11987;BME280;6053;51.382;6.768;2023-12-20T01:25:19;101391.97;;;9.53;73.78
11987;BME280;6053;51.382;6.768;2023-12-20T01:27:48;101401.81;;;9.91;73.13
11987;BME280;6053;51.382;6.768;2023-12-20T01:30:25;101397.31;;;8.83;75.44
11987;BME280;6053;51.382;6.768;2023-12-20T01:32:57;101392.63;;;9.64;73.77
11987;BME280;6053;51.382;6.768;2023-12-20T01:35:31;101390.94;;;10.66;70.35
11987;BME280;6053;51.382;6.768;2023-12-20T01:38:08;101407.97;;;8.78;74.52
11987;BME280;6053;51.382;6.768;2023-12-20T01:40:37;101409.41;;;9.43;74.58
11987;BME280;6053;51.382;6.768;2023-12-20T01:43:07;101413.56;;;9.98;69.89
11987;BME280;6053;51.382;6.768;2023-12-20T01:45:37;101407.09;;;10.12;72.21
11987;BME280;6053;51.382;6.768;2023-12-20T01:48:06;101399.09;;;10.21;70.25
11987;BME280;6053;51.382;6.768;2023-12-20T01:50:36;101405.34;;;10.25;71.43
11987;BME280;6053;51.382;6.768;2023-12-20T01:53:11;101400.41;;;10.92;67.40
11987;BME280;6053;51.382;6.768;2023-12-20T01:55:41;101393.88;;;11.05;68.38
11987;BME280;6053;51.382;6.768;2023-12-20T01:58:10;101386.53;;;10.95;68.24
11987;BME280;6053;51.382;6.768;2023-12-20T02:00:45;101386.88;;;11.24;67.19
11987;BME280;6053;51.382;6.768;2023-12-20T02:03:14;101408.19;;;11.46;66.22
11987;BME280;6053;51.382;6.768;2023-12-20T02:05:43;101406.28;;;11.66;65.65
11987;BME280;6053;51.382;6.768;2023-12-20T02:08:17;101413.94;;;11.09;65.58
11987;BME280;6053;51.382;6.768;2023-12-20T02:10:45;101402.56;;;11.53;65.88
11987;BME280;6053;51.382;6.768;2023-12-20T02:13:17;101397.97;;;11.66;65.28
11987;BME280;6053;51.382;6.768;2023-12-20T02:15:45;101386.78;;;11.50;65.85
11987;BME280;6053;51.382;6.768;2023-12-20T02:18:13;101393.34;;;11.59;65.57
11987;BME280;6053;51.382;6.768;2023-12-20T02:20:53;101401.16;;;10.13;70.76
11987;BME280;6053;51.382;6.768;2023-12-20T02:23:23;101402.59;;;10.25;68.99
11987;BME280;6053;51.382;6.768;2023-12-20T02:25:54;101397.97;;;10.97;68.14
11987;BME280;6053;51.382;6.768;2023-12-20T02:28:25;101403.06;;;10.20;69.62
11987;BME280;6053;51.382;6.768;2023-12-20T02:30:59;101405.13;;;9.76;71.86
11987;BME280;6053;51.382;6.768;2023-12-20T02:33:28;101400.56;;;10.55;69.25
11987;BME280;6053;51.382;6.768;2023-12-20T02:36:06;101399.25;;;10.07;69.24
11987;BME280;6053;51.382;6.768;2023-12-20T02:38:36;101411.59;;;9.95;72.10
11987;BME280;6053;51.382;6.768;2023-12-20T02:41:07;101405.00;;;9.49;71.64
11987;BME280;6053;51.382;6.768;2023-12-20T02:43:45;101411.53;;;10.32;70.46
11987;BME280;6053;51.382;6.768;2023-12-20T02:46:15;101406.16;;;10.52;69.42
11987;BME280;6053;51.382;6.768;2023-12-20T02:48:45;101399.59;;;10.42;67.63
11987;BME280;6053;51.382;6.768;2023-12-20T02:51:17;101398.16;;;10.01;69.02
11987;BME280;6053;51.382;6.768;2023-12-20T02:53:53;101401.81;;;9.91;70.67
11987;BME280;6053;51.382;6.768;2023-12-20T02:56:22;101405.19;;;9.69;69.31
11987;BME280;6053;51.382;6.768;2023-12-20T02:58:50;101404.25;;;10.49;69.26
11987;BME280;6053;51.382;6.768;2023-12-20T03:01:24;101412.28;;;10.66;69.09
11987;BME280;6053;51.382;6.768;2023-12-20T03:03:59;101427.19;;;9.35;70.75
11987;BME280;6053;51.382;6.768;2023-12-20T03:06:37;101421.16;;;9.88;67.92
11987;BME280;6053;51.382;6.768;2023-12-20T03:09:13;101415.84;;;9.30;70.22
11987;BME280;6053;51.382;6.768;2023-12-20T03:11:44;101415.34;;;9.38;70.82
11987;BME280;6053;51.382;6.768;2023-12-20T03:14:12;101421.69;;;9.72;70.43
11987;BME280;6053;51.382;6.768;2023-12-20T03:16:48;101417.19;;;10.22;67.19
11987;BME280;6053;51.382;6.768;2023-12-20T03:19:23;101414.75;;;9.94;68.81
11987;BME280;6053;51.382;6.768;2023-12-20T03:21:51;101417.09;;;9.22;71.89
11987;BME280;6053;51.382;6.768;2023-12-20T03:24:25;101409.13;;;9.31;71.74
11987;BME280;6053;51.382;6.768;2023-12-20T03:26:56;101411.78;;;9.78;72.22
11987;BME280;6053;51.382;6.768;2023-12-20T03:29:26;101411.75;;;9.41;71.54
11987;BME280;6053;51.382;6.768;2023-12-20T03:32:01;101400.72;;;9.82;70.62
11987;BME280;6053;51.382;6.768;2023-12-20T03:34:32;101405.53;;;8.29;73.90
11987;BME280;6053;51.382;6.768;2023-12-20T03:37:00;101400.56;;;9.22;73.45
11987;BME280;6053;51.382;6.768;2023-12-20T03:39:33;101397.38;;;9.23;72.25
11987;BME280;6053;51.382;6.768;2023-12-20T03:42:05;101391.59;;;7.71;74.79
11987;BME280;6053;51.382;6.768;2023-12-20T03:44:33;101400.25;;;7.66;76.52
11987;BME280;6053;51.382;6.768;2023-12-20T03:47:14;101386.06;;;7.78;74.98
11987;BME280;6053;51.382;6.768;2023-12-20T03:49:42;101396.06;;;8.34;77.20
11987;BME280;6053;51.382;6.768;2023-12-20T03:52:16;101390.97;;;8.93;74.78
11987;BME280;6053;51.382;6.768;2023-12-20T03:54:46;101391.59;;;8.57;73.65
11987;BME280;6053;51.382;6.768;2023-12-20T03:57:14;101398.94;;;8.77;72.84
11987;BME280;6053;51.382;6.768;2023-12-20T03:59:43;101399.53;;;7.35;76.45
11987;BME280;6053;51.382;6.768;2023-12-20T04:02:23;101388.19;;;8.97;72.97
11987;BME280;6053;51.382;6.768;2023-12-20T04:04:55;101389.59;;;7.72;76.95
11987;BME280;6053;51.382;6.768;2023-12-20T04:07:40;101380.41;;;8.20;77.02
11987;BME280;6053;51.382;6.768;2023-12-20T04:10:17;101375.72;;;8.03;73.62
11987;BME280;6053;51.382;6.768;2023-12-20T04:12:49;101367.25;;;8.55;72.67
11987;BME280;6053;51.382;6.768;2023-12-20T04:15:17;101367.88;;;9.57;72.16
11987;BME280;6053;51.382;6.768;2023-12-20T04:17:45;101376.41;;;9.33;72.59
11987;BME280;6053;51.382;6.768;2023-12-20T04:20:14;101378.81;;;10.61;68.70
11987;BME280;6053;51.382;6.768;2023-12-20T04:22:46;101389.53;;;9.92;70.92
11987;BME280;6053;51.382;6.768;2023-12-20T04:25:21;101395.16;;;9.08;71.88
11987;BME280;6053;51.382;6.768;2023-12-20T04:27:50;101385.06;;;9.72;69.09
11987;BME280;6053;51.382;6.768;2023-12-20T04:30:26;101391.00;;;8.90;73.60
11987;BME280;6053;51.382;6.768;2023-12-20T04:33:01;101394.66;;;8.69;71.66
11987;BME280;6053;51.382;6.768;2023-12-20T04:35:42;101401.47;;;7.55;74.28
11987;BME280;6053;51.382;6.768;2023-12-20T04:38:12;101406.75;;;8.21;76.07
11987;BME280;6053;51.382;6.768;2023-12-20T04:40:42;101399.41;;;9.16;71.66
11987;BME280;6053;51.382;6.768;2023-12-20T04:43:11;101406.03;;;7.89;76.18
11987;BME280;6053;51.382;6.768;2023-12-20T04:46:03;101407.59;;;8.01;77.68
11987;BME280;6053;51.382;6.768;2023-12-20T04:48:35;101403.72;;;7.84;75.31
11987;BME280;6053;51.382;6.768;2023-12-20T04:51:04;101408.09;;;7.64;78.28
11987;BME280;6053;51.382;6.768;2023-12-20T04:53:36;101408.34;;;8.08;78.09
11987;BME280;6053;51.382;6.768;2023-12-20T04:56:06;101410.50;;;7.38;75.73
11987;BME280;6053;51.382;6.768;2023-12-20T04:58:35;101405.69;;;7.87;76.25
11987;BME280;6053;51.382;6.768;2023-12-20T05:01:04;101401.75;;;7.85;75.76
11987;BME280;6053;51.382;6.768;2023-12-20T05:03:33;101391.41;;;8.20;75.14
11987;BME280;6053;51.382;6.768;2023-12-20T05:06:05;101419.19;;;9.04;74.30
11987;BME280;6053;51.382;6.768;2023-12-20T05:08:36;101415.66;;;8.49;74.36
11987;BME280;6053;51.382;6.768;2023-12-20T05:11:05;101416.88;;;8.41;73.64
11987;BME280;6053;51.382;6.768;2023-12-20T05:13:37;101400.53;;;9.25;70.24
11987;BME280;6053;51.382;6.768;2023-12-20T05:16:15;101395.13;;;9.12;68.34
11987;BME280;6053;51.382;6.768;2023-12-20T05:18:49;101408.19;;;7.19;76.88
11987;BME280;6053;51.382;6.768;2023-12-20T05:21:22;101404.16;;;9.12;73.67
11987;BME280;6053;51.382;6.768;2023-12-20T05:24:05;101406.03;;;8.75;74.04
11987;BME280;6053;51.382;6.768;2023-12-20T05:26:37;101393.69;;;8.32;74.50
11987;BME280;6053;51.382;6.768;2023-12-20T05:29:11;101393.03;;;8.04;74.42
11987;BME280;6053;51.382;6.768;2023-12-20T05:31:43;101394.78;;;7.35;76.74
11987;BME280;6053;51.382;6.768;2023-12-20T05:34:16;101393.09;;;7.93;73.74
11987;BME280;6053;51.382;6.768;2023-12-20T05:36:51;101400.81;;;8.26;74.57
11987;BME280;6053;51.382;6.768;2023-12-20T05:39:22;101401.44;;;7.62;76.24
11987;BME280;6053;51.382;6.768;2023-12-20T05:41:54;101382.00;;;8.18;73.73
11987;BME280;6053;51.382;6.768;2023-12-20T05:44:25;101388.00;;;9.17;72.16
11987;BME280;6053;51.382;6.768;2023-12-20T05:46:53;101380.16;;;9.12;71.68
11987;BME280;6053;51.382;6.768;2023-12-20T05:49:22;101392.75;;;9.10;72.92
11987;BME280;6053;51.382;6.768;2023-12-20T05:51:57;101380.81;;;10.00;68.97
11987;BME280;6053;51.382;6.768;2023-12-20T05:54:31;101383.53;;;9.67;70.42
11987;BME280;6053;51.382;6.768;2023-12-20T05:57:01;101390.03;;;9.07;72.11
11987;BME280;6053;51.382;6.768;2023-12-20T05:59:35;101383.50;;;9.71;70.69
11987;BME280;6053;51.382;6.768;2023-12-20T06:02:09;101377.88;;;8.50;71.28
11987;BME280;6053;51.382;6.768;2023-12-20T06:04:42;101390.75;;;8.67;73.55
11987;BME280;6053;51.382;6.768;2023-12-20T06:07:12;101391.19;;;7.73;75.38
11987;BME280;6053;51.382;6.768;2023-12-20T06:09:41;101408.31;;;8.22;75.71
11987;BME280;6053;51.382;6.768;2023-12-20T06:12:11;101401.22;;;9.73;71.14
11987;BME280;6053;51.382;6.768;2023-12-20T06:14:39;101413.81;;;8.87;71.89
11987;BME280;6053;51.382;6.768;2023-12-20T06:17:08;101412.72;;;9.24;72.08
11987;BME280;6053;51.382;6.768;2023-12-20T06:19:36;101402.13;;;9.19;70.64
11987;BME280;6053;51.382;6.768;2023-12-20T06:22:04;101399.47;;;9.09;71.69
11987;BME280;6053;51.382;6.768;2023-12-20T06:24:36;101394.00;;;7.52;74.88
11987;BME280;6053;51.382;6.768;2023-12-20T06:27:04;101398.47;;;8.25;73.38
11987;BME280;6053;51.382;6.768;2023-12-20T06:29:37;101401.28;;;8.07;75.69
11987;BME280;6053;51.382;6.768;2023-12-20T06:32:08;101398.81;;;8.34;72.53
11987;BME280;6053;51.382;6.768;2023-12-20T06:34:40;101398.91;;;9.28;71.45
11987;BME280;6053;51.382;6.768;2023-12-20T06:37:11;101397.81;;;9.99;70.14
11987;BME280;6053;51.382;6.768;2023-12-20T06:39:49;101398.41;;;8.38;70.76
11987;BME280;6053;51.382;6.768;2023-12-20T06:42:18;101391.03;;;8.83;73.41
11987;BME280;6053;51.382;6.768;2023-12-20T06:44:48;101385.50;;;9.33;70.34
11987;BME280;6053;51.382;6.768;2023-12-20T06:47:16;101391.31;;;9.39;71.04
11987;BME280;6053;51.382;6.768;2023-12-20T06:49:47;101410.66;;;8.88;70.98
11987;BME280;6053;51.382;6.768;2023-12-20T06:52:19;101401.94;;;8.97;72.20
11987;BME280;6053;51.382;6.768;2023-12-20T06:54:50;101402.47;;;9.65;71.00
11987;BME280;6053;51.382;6.768;2023-12-20T06:57:19;101406.25;;;9.78;70.09
11987;BME280;6053;51.382;6.768;2023-12-20T06:59:48;101391.72;;;8.39;72.34
11987;BME280;6053;51.382;6.768;2023-12-20T07:02:17;101395.25;;;8.94;70.31
11987;BME280;6053;51.382;6.768;2023-12-20T07:04:50;101393.63;;;8.49;72.62
11987;BME280;6053;51.382;6.768;2023-12-20T07:07:18;101394.44;;;8.43;74.65
11987;BME280;6053;51.382;6.768;2023-12-20T07:09:56;101394.38;;;8.53;72.06
11987;BME280;6053;51.382;6.768;2023-12-20T07:12:27;101389.88;;;9.64;71.11
11987;BME280;6053;51.382;6.768;2023-12-20T07:14:57;101385.09;;;9.31;69.14
11987;BME280;6053;51.382;6.768;2023-12-20T07:17:26;101383.69;;;9.13;73.05
11987;BME280;6053;51.382;6.768;2023-12-20T07:19:54;101387.88;;;9.68;71.16
11987;BME280;6053;51.382;6.768;2023-12-20T07:22:34;101380.78;;;8.26;73.01
11987;BME280;6053;51.382;6.768;2023-12-20T07:25:12;101371.53;;;7.74;76.13
11987;BME280;6053;51.382;6.768;2023-12-20T07:27:43;101385.94;;;8.17;75.65
11987;BME280;6053;51.382;6.768;2023-12-20T07:30:14;101385.94;;;8.06;75.56
11987;BME280;6053;51.382;6.768;2023-12-20T07:32:45;101381.44;;;7.44;75.90
11987;BME280;6053;51.382;6.768;2023-12-20T07:35:15;101402.44;;;8.10;74.93
11987;BME280;6053;51.382;6.768;2023-12-20T07:37:44;101388.41;;;7.76;75.66
11987;BME280;6053;51.382;6.768;2023-12-20T07:40:16;101395.78;;;8.79;72.34
11987;BME280;6053;51.382;6.768;2023-12-20T07:42:48;101391.84;;;8.80;72.42
11987;BME280;6053;51.382;6.768;2023-12-20T07:45:18;101395.47;;;8.66;72.01
11987;BME280;6053;51.382;6.768;2023-12-20T07:47:46;101397.41;;;7.94;75.56
11987;BME280;6053;51.382;6.768;2023-12-20T07:50:16;101383.78;;;7.63;75.90
11987;BME280;6053;51.382;6.768;2023-12-20T07:52:48;101388.28;;;8.18;75.74
11987;BME280;6053;51.382;6.768;2023-12-20T07:55:16;101395.28;;;8.91;72.25
11987;BME280;6053;51.382;6.768;2023-12-20T07:57:45;101388.66;;;8.85;72.31
11987;BME280;6053;51.382;6.768;2023-12-20T08:00:15;101402.09;;;8.76;70.76
11987;BME280;6053;51.382;6.768;2023-12-20T08:02:45;101393.03;;;8.07;72.71
11987;BME280;6053;51.382;6.768;2023-12-20T08:05:13;101393.81;;;8.04;74.56
11987;BME280;6053;51.382;6.768;2023-12-20T08:07:44;101393.34;;;8.30;73.86
11987;BME280;6053;51.382;6.768;2023-12-20T08:10:16;101391.91;;;7.94;76.75
11987;BME280;6053;51.382;6.768;2023-12-20T08:12:46;101399.25;;;8.25;74.40
11987;BME280;6053;51.382;6.768;2023-12-20T08:15:15;101396.28;;;7.71;75.00
11987;BME280;6053;51.382;6.768;2023-12-20T08:17:44;101392.19;;;8.24;74.96
11987;BME280;6053;51.382;6.768;2023-12-20T08:20:16;101384.91;;;8.58;73.79
11987;BME280;6053;51.382;6.768;2023-12-20T08:23:02;101398.97;;;7.95;74.72
11987;BME280;6053;51.382;6.768;2023-12-20T08:25:36;101392.41;;;7.58;75.96
11987;BME280;6053;51.382;6.768;2023-12-20T08:28:05;101395.78;;;8.04;73.68
11987;BME280;6053;51.382;6.768;2023-12-20T08:30:39;101391.66;;;8.46;74.55
11987;BME280;6053;51.382;6.768;2023-12-20T08:33:10;101397.81;;;9.18;72.21
11987;BME280;6053;51.382;6.768;2023-12-20T08:35:40;101403.88;;;8.42;71.25
11987;BME280;6053;51.382;6.768;2023-12-20T08:38:12;101421.19;;;8.46;73.21
11987;BME280;6053;51.382;6.768;2023-12-20T08:40:44;101418.69;;;8.62;74.06
11987;BME280;6053;51.382;6.768;2023-12-20T08:43:19;101419.31;;;8.87;72.49
11987;BME280;6053;51.382;6.768;2023-12-20T08:45:54;101421.94;;;8.50;71.74
11987;BME280;6053;51.382;6.768;2023-12-20T08:48:27;101411.50;;;8.82;70.26
11987;BME280;6053;51.382;6.768;2023-12-20T08:51:08;101399.47;;;7.62;73.25
11987;BME280;6053;51.382;6.768;2023-12-20T08:53:37;101411.63;;;7.65;75.45
11987;BME280;6053;51.382;6.768;2023-12-20T08:56:09;101394.75;;;7.53;75.33
11987;BME280;6053;51.382;6.768;2023-12-20T08:58:37;101404.91;;;7.83;74.54
11987;BME280;6053;51.382;6.768;2023-12-20T09:01:09;101395.69;;;8.28;72.98
11987;BME280;6053;51.382;6.768;2023-12-20T09:03:42;101393.75;;;8.22;74.25
11987;BME280;6053;51.382;6.768;2023-12-20T09:06:13;101390.06;;;8.49;72.53
11987;BME280;6053;51.382;6.768;2023-12-20T09:08:45;101398.53;;;8.07;72.72
11987;BME280;6053;51.382;6.768;2023-12-20T09:11:13;101393.06;;;7.97;74.40
11987;BME280;6053;51.382;6.768;2023-12-20T09:13:42;101392.06;;;8.45;73.82
11987;BME280;6053;51.382;6.768;2023-12-20T09:16:11;101401.75;;;7.92;72.66
11987;BME280;6053;51.382;6.768;2023-12-20T09:18:44;101389.91;;;8.02;73.71
11987;BME280;6053;51.382;6.768;2023-12-20T09:21:15;101411.91;;;8.02;75.22
11987;BME280;6053;51.382;6.768;2023-12-20T09:23:49;101395.00;;;8.00;73.86
11987;BME280;6053;51.382;6.768;2023-12-20T09:34:33;101379.38;;;7.86;73.00
11987;BME280;6053;51.382;6.768;2023-12-20T09:37:04;101377.38;;;8.65;72.05
11987;BME280;6053;51.382;6.768;2023-12-20T09:42:12;101378.47;;;8.07;74.27
11987;BME280;6053;51.382;6.768;2023-12-20T09:44:51;101375.53;;;8.52;72.36
11987;BME280;6053;51.382;6.768;2023-12-20T09:47:29;101394.53;;;9.34;71.93
11987;BME280;6053;51.382;6.768;2023-12-20T09:49:59;101398.38;;;8.42;73.46
11987;BME280;6053;51.382;6.768;2023-12-20T09:52:29;101401.72;;;7.95;73.64
11987;BME280;6053;51.382;6.768;2023-12-20T09:55:04;101386.38;;;8.01;74.60
11987;BME280;6053;51.382;6.768;2023-12-20T09:57:36;101396.19;;;8.06;72.71
11987;BME280;6053;51.382;6.768;2023-12-20T10:00:08;101391.81;;;8.12;74.00
11987;BME280;6053;51.382;6.768;2023-12-20T10:02:53;101391.38;;;8.27;74.79
11987;BME280;6053;51.382;6.768;2023-12-20T10:05:30;101388.66;;;9.28;72.58
11987;BME280;6053;51.382;6.768;2023-12-20T10:08:00;101394.44;;;9.01;71.94
11987;BME280;6053;51.382;6.768;2023-12-20T10:10:32;101385.97;;;9.21;72.72
11987;BME280;6053;51.382;6.768;2023-12-20T10:13:12;101386.75;;;8.78;73.30
11987;BME280;6053;51.382;6.768;2023-12-20T10:15:45;101387.84;;;8.27;71.92
11987;BME280;6053;51.382;6.768;2023-12-20T10:18:26;101381.81;;;8.49;71.36
11987;BME280;6053;51.382;6.768;2023-12-20T10:21:07;101386.66;;;8.31;74.08
11987;BME280;6053;51.382;6.768;2023-12-20T10:23:40;101378.13;;;9.20;70.62
11987;BME280;6053;51.382;6.768;2023-12-20T10:26:19;101371.25;;;8.40;72.90
11987;BME280;6053;51.382;6.768;2023-12-20T10:28:55;101360.22;;;8.44;71.27
11987;BME280;6053;51.382;6.768;2023-12-20T10:31:29;101359.44;;;8.43;72.00
11987;BME280;6053;51.382;6.768;2023-12-20T10:33:58;101363.16;;;8.09;73.93
11987;BME280;6053;51.382;6.768;2023-12-20T10:36:30;101346.50;;;8.40;71.12
11987;BME280;6053;51.382;6.768;2023-12-20T10:39:04;101359.38;;;8.50;73.56
11987;BME280;6053;51.382;6.768;2023-12-20T10:41:38;101360.34;;;9.28;70.81
11987;BME280;6053;51.382;6.768;2023-12-20T10:44:09;101346.03;;;10.36;68.75
11987;BME280;6053;51.382;6.768;2023-12-20T10:46:40;101360.06;;;9.15;69.36
11987;BME280;6053;51.382;6.768;2023-12-20T10:49:24;101360.41;;;8.09;74.25
11987;BME280;6053;51.382;6.768;2023-12-20T10:51:55;101347.91;;;8.62;72.76
11987;BME280;6053;51.382;6.768;2023-12-20T10:54:25;101356.47;;;8.10;73.17
11987;BME280;6053;51.382;6.768;2023-12-20T10:57:04;101348.75;;;9.77;71.44
11987;BME280;6053;51.382;6.768;2023-12-20T10:59:45;101346.47;;;8.95;70.86
11987;BME280;6053;51.382;6.768;2023-12-20T11:02:17;101362.69;;;8.28;72.52
11987;BME280;6053;51.382;6.768;2023-12-20T11:04:53;101359.06;;;8.41;72.75
11987;BME280;6053;51.382;6.768;2023-12-20T11:07:37;101361.97;;;8.10;72.79
11987;BME280;6053;51.382;6.768;2023-12-20T11:10:16;101348.88;;;8.35;73.46
11987;BME280;6053;51.382;6.768;2023-12-20T11:12:54;101362.63;;;8.35;75.40
11987;BME280;6053;51.382;6.768;2023-12-20T11:15:28;101348.50;;;8.33;72.58
11987;BME280;6053;51.382;6.768;2023-12-20T11:17:58;101349.06;;;8.65;73.14
11987;BME280;6053;51.382;6.768;2023-12-20T11:20:36;101348.56;;;8.23;73.24
11987;BME280;6053;51.382;6.768;2023-12-20T11:23:08;101343.38;;;8.35;74.69
11987;BME280;6053;51.382;6.768;2023-12-20T11:25:55;101344.19;;;9.30;73.33
11987;BME280;6053;51.382;6.768;2023-12-20T11:28:26;101336.38;;;9.58;69.09
11987;BME280;6053;51.382;6.768;2023-12-20T11:30:58;101348.88;;;9.29;70.05
11987;BME280;6053;51.382;6.768;2023-12-20T11:33:31;101344.16;;;8.32;72.46
11987;BME280;6053;51.382;6.768;2023-12-20T11:36:06;101333.31;;;8.65;72.84
11987;BME280;6053;51.382;6.768;2023-12-20T11:38:56;101327.84;;;9.06;72.55
11987;BME280;6053;51.382;6.768;2023-12-20T11:41:28;101317.38;;;8.43;73.40
11987;BME280;6053;51.382;6.768;2023-12-20T11:43:56;101315.00;;;8.92;69.88
11987;BME280;6053;51.382;6.768;2023-12-20T11:46:35;101329.81;;;9.09;72.58
11987;BME280;6053;51.382;6.768;2023-12-20T11:49:03;101328.19;;;9.51;69.15
11987;BME280;6053;51.382;6.768;2023-12-20T11:51:35;101323.31;;;9.95;69.37
11987;BME280;6053;51.382;6.768;2023-12-20T11:54:08;101316.59;;;9.33;70.60
11987;BME280;6053;51.382;6.768;2023-12-20T11:56:46;101337.19;;;8.75;72.43
11987;BME280;6053;51.382;6.768;2023-12-20T11:59:15;101315.69;;;8.56;74.96
11987;BME280;6053;51.382;6.768;2023-12-20T12:01:50;101323.00;;;9.20;70.36
11987;BME280;6053;51.382;6.768;2023-12-20T12:04:19;101306.81;;;8.85;72.67
11987;BME280;6053;51.382;6.768;2023-12-20T12:06:52;101313.47;;;9.28;72.77
11987;BME280;6053;51.382;6.768;2023-12-20T12:09:25;101306.81;;;8.38;74.94
11987;BME280;6053;51.382;6.768;2023-12-20T12:11:54;101315.22;;;8.10;75.41
11987;BME280;6053;51.382;6.768;2023-12-20T12:14:22;101307.66;;;8.79;72.79
11987;BME280;6053;51.382;6.768;2023-12-20T12:16:53;101302.84;;;9.30;71.63
11987;BME280;6053;51.382;6.768;2023-12-20T12:19:22;101293.38;;;9.94;70.76
11987;BME280;6053;51.382;6.768;2023-12-20T12:21:51;101296.50;;;8.49;73.85
11987;BME280;6053;51.382;6.768;2023-12-20T12:24:36;101294.41;;;8.06;75.06
11987;BME280;6053;51.382;6.768;2023-12-20T12:27:08;101290.19;;;9.32;72.58
11987;BME280;6053;51.382;6.768;2023-12-20T12:29:37;101294.75;;;9.09;71.49
11987;BME280;6053;51.382;6.768;2023-12-20T12:32:09;101289.38;;;8.51;73.42
11987;BME280;6053;51.382;6.768;2023-12-20T12:34:38;101300.16;;;8.36;75.04
11987;BME280;6053;51.382;6.768;2023-12-20T12:37:16;101302.66;;;8.67;73.74
11987;BME280;6053;51.382;6.768;2023-12-20T12:39:54;101296.25;;;8.26;73.47
11987;BME280;6053;51.382;6.768;2023-12-20T12:42:23;101290.69;;;8.33;73.63
11987;BME280;6053;51.382;6.768;2023-12-20T12:44:58;101275.69;;;8.88;74.62
11987;BME280;6053;51.382;6.768;2023-12-20T12:47:30;101291.47;;;8.37;75.18
11987;BME280;6053;51.382;6.768;2023-12-20T12:50:10;101266.53;;;8.58;72.93
11987;BME280;6053;51.382;6.768;2023-12-20T12:52:41;101267.59;;;8.20;75.46
11987;BME280;6053;51.382;6.768;2023-12-20T12:55:10;101275.00;;;8.30;75.38
11987;BME280;6053;51.382;6.768;2023-12-20T12:57:42;101265.06;;;8.46;74.33
11987;BME280;6053;51.382;6.768;2023-12-20T13:00:14;101280.19;;;8.14;75.71
11987;BME280;6053;51.382;6.768;2023-12-20T13:02:46;101268.25;;;7.77;77.33
11987;BME280;6053;51.382;6.768;2023-12-20T13:05:17;101275.13;;;8.09;76.50
11987;BME280;6053;51.382;6.768;2023-12-20T13:07:52;101264.25;;;7.92;76.95
11987;BME280;6053;51.382;6.768;2023-12-20T13:10:22;101270.16;;;7.83;77.70
11987;BME280;6053;51.382;6.768;2023-12-20T13:12:51;101259.13;;;7.87;78.10
11987;BME280;6053;51.382;6.768;2023-12-20T13:15:22;101245.97;;;8.26;76.09
11987;BME280;6053;51.382;6.768;2023-12-20T13:17:50;101244.13;;;9.33;74.23
11987;BME280;6053;51.382;6.768;2023-12-20T13:20:39;101230.88;;;9.21;72.73
11987;BME280;6053;51.382;6.768;2023-12-20T13:23:10;101226.09;;;9.25;74.72
11987;BME280;6053;51.382;6.768;2023-12-20T13:25:43;101222.78;;;8.70;75.11
11987;BME280;6053;51.382;6.768;2023-12-20T13:28:13;101226.63;;;8.33;77.13
11987;BME280;6053;51.382;6.768;2023-12-20T13:30:47;101216.16;;;8.17;78.31
11987;BME280;6053;51.382;6.768;2023-12-20T13:33:24;101213.56;;;7.89;78.81
11987;BME280;6053;51.382;6.768;2023-12-20T13:35:53;101206.25;;;8.27;77.75
11987;BME280;6053;51.382;6.768;2023-12-20T13:38:24;101208.06;;;9.50;73.77
11987;BME280;6053;51.382;6.768;2023-12-20T13:40:54;101216.53;;;8.19;76.71
11987;BME280;6053;51.382;6.768;2023-12-20T13:43:22;101208.16;;;9.43;74.05
11987;BME280;6053;51.382;6.768;2023-12-20T13:45:51;101209.13;;;8.97;74.56
11987;BME280;6053;51.382;6.768;2023-12-20T13:48:29;101210.06;;;8.39;76.15